Time;durP1;ratioP1;P1;durP2;ratioP2;P2;SDS_P1;SDS_P2;PMS_P1;PMS_P2;Temp;Humidity;BMP_temperature;BMP_pressure;BME280_temperature;BME280_humidity;BME280_pressure;Samples;Min_cycle;Max_cycle;Signal;HPM_P1;HPM_P2
2022/10/15 00:01:36;;;;;;;20.62;10.75;;;9.20;90.00;;;;;;1872764;77;21041;-56
2022/10/15 00:04:06;;;;;;;16.97;11.15;;;9.20;90.00;;;;;;1872889;77;21017;-56
2022/10/15 00:06:35;;;;;;;22.70;11.60;;;9.20;90.00;;;;;;1872853;77;21088;-56
2022/10/15 00:09:05;;;;;;;15.45;10.60;;;9.20;90.00;;;;;;1872750;77;21030;-56
2022/10/15 00:11:34;;;;;;;21.10;11.28;;;9.20;90.10;;;;;;1872854;77;21025;-57
2022/10/15 00:14:04;;;;;;;15.35;10.55;;;9.20;90.10;;;;;;1872703;77;21022;-56
2022/10/15 00:16:33;;;;;;;16.80;11.70;;;9.20;90.10;;;;;;1872786;77;21103;-56
2022/10/15 00:19:02;;;;;;;20.17;10.82;;;9.20;90.10;;;;;;1872773;77;21018;-56
2022/10/15 00:21:32;;;;;;;15.20;9.68;;;9.20;90.10;;;;;;1872822;75;21077;-55
2022/10/15 00:24:01;;;;;;;17.70;11.10;;;9.10;90.10;;;;;;1872729;77;21033;-56
2022/10/15 00:26:31;;;;;;;16.25;10.45;;;9.10;90.10;;;;;;1872770;77;21057;-56
2022/10/15 00:29:02;;;;;;;18.32;10.30;;;9.10;90.10;;;;;;1872714;77;21014;-56
2022/10/15 00:31:32;;;;;;;16.77;10.13;;;9.10;90.10;;;;;;1872800;77;21006;-56
2022/10/15 00:34:02;;;;;;;14.23;10.08;;;9.10;90.20;;;;;;1872714;77;21017;-56
2022/10/15 00:36:34;;;;;;;16.57;9.70;;;9.10;90.20;;;;;;1872801;77;21108;-56
2022/10/15 00:39:04;;;;;;;16.62;10.13;;;9.10;90.30;;;;;;1872836;76;21010;-55
2022/10/15 00:41:36;;;;;;;17.87;9.85;;;9.10;90.30;;;;;;1872816;77;21021;-56
2022/10/15 00:44:28;;;;;;;16.27;9.55;;;9.00;90.20;;;;;;1872770;77;21099;-56
2022/10/15 00:47:29;;;;;;;14.53;9.58;;;9.00;90.10;;;;;;1872828;77;21029;-56
2022/10/15 00:50:02;;;;;;;12.90;8.55;;;9.00;90.00;;;;;;1871417;77;21568;-56
2022/10/15 00:52:40;;;;;;;16.40;9.63;;;8.90;90.10;;;;;;1872921;77;21099;-56
2022/10/15 00:55:11;;;;;;;17.15;10.78;;;8.90;90.20;;;;;;1872685;76;21029;-56
2022/10/15 00:57:42;;;;;;;17.62;10.08;;;8.80;90.30;;;;;;1872849;76;21492;-56
2022/10/15 01:00:19;;;;;;;11.97;9.55;;;8.80;90.30;;;;;;1872730;76;21022;-56
2022/10/15 01:02:45;;;;;;;17.48;10.03;;;8.80;90.30;;;;;;1872223;77;21050;-56
2022/10/15 01:05:16;;;;;;;15.63;9.85;;;8.80;90.30;;;;;;1872760;77;21017;-54
2022/10/15 01:07:46;;;;;;;16.48;9.38;;;8.80;90.30;;;;;;1872826;77;20994;-56
2022/10/15 01:10:17;;;;;;;15.43;9.78;;;8.80;90.30;;;;;;1872594;76;21077;-56
2022/10/15 01:13:09;;;;;;;23.30;10.13;;;8.80;90.30;;;;;;1872680;77;21049;-56
2022/10/15 01:15:52;;;;;;;18.25;9.05;;;8.80;90.20;;;;;;1872117;77;21001;-56
2022/10/15 01:18:30;;;;;;;14.70;9.38;;;8.70;90.20;;;;;;1871410;77;21023;-56
2022/10/15 01:21:17;;;;;;;15.25;9.38;;;8.70;90.30;;;;;;1872594;75;21147;-56
2022/10/15 01:24:13;;;;;;;17.23;9.18;;;8.70;90.30;;;;;;1872900;77;21115;-56
2022/10/15 01:26:57;;;;;;;14.87;7.95;;;8.70;90.30;;;;;;1871235;77;21526;-56
2022/10/15 01:29:49;;;;;;;12.65;9.18;;;8.70;90.30;;;;;;1871501;77;21057;-56
2022/10/15 01:32:28;;;;;;;17.02;9.30;;;8.70;90.30;;;;;;1872745;76;21543;-56
2022/10/15 01:35:03;;;;;;;12.75;8.18;;;8.60;90.30;;;;;;1872804;77;21041;-56
2022/10/15 01:37:52;;;;;;;15.45;9.28;;;8.60;90.30;;;;;;1872715;77;21027;-56
2022/10/15 01:40:31;;;;;;;15.20;9.08;;;8.60;90.40;;;;;;1871939;77;21168;-56
2022/10/15 01:43:06;;;;;;;14.83;9.03;;;8.50;90.40;;;;;;1872744;77;21549;-56
2022/10/15 01:45:49;;;;;;;16.10;9.83;;;8.50;90.30;;;;;;1870693;77;21203;-56
2022/10/15 01:48:20;;;;;;;22.87;10.23;;;8.50;90.40;;;;;;1870708;77;21108;-56
2022/10/15 01:50:52;;;;;;;17.23;9.20;;;8.40;90.30;;;;;;1872735;77;21089;-56
2022/10/15 01:53:25;;;;;;;16.42;9.75;;;8.50;90.50;;;;;;1872708;77;21021;-56
2022/10/15 01:55:57;;;;;;;18.67;9.10;;;8.50;90.50;;;;;;1872824;77;21021;-56
2022/10/15 01:58:28;;;;;;;15.83;8.90;;;8.50;90.50;;;;;;1872704;76;21131;-56
2022/10/15 02:00:59;;;;;;;18.30;9.05;;;8.50;90.50;;;;;;1873056;77;21550;-56
2022/10/15 02:03:28;;;;;;;11.88;9.43;;;8.50;90.50;;;;;;1872796;77;20994;-56
2022/10/15 02:06:02;;;;;;;12.10;9.00;;;8.50;90.40;;;;;;1872817;77;21007;-56
2022/10/15 02:08:43;;;;;;;13.03;8.60;;;8.50;90.40;;;;;;1872945;76;21053;-56
2022/10/15 02:11:15;;;;;;;13.65;9.45;;;8.40;90.30;;;;;;1856375;77;21045;-56
2022/10/15 02:14:02;;;;;;;13.20;8.73;;;8.40;90.40;;;;;;1871254;77;21561;-56
2022/10/15 02:17:00;;;;;;;15.25;8.78;;;8.30;90.50;;;;;;1871221;77;21030;-56
2022/10/15 02:19:44;;;;;;;13.75;8.78;;;8.40;90.60;;;;;;1872005;77;21120;-56
2022/10/15 02:22:23;;;;;;;15.43;8.53;;;8.40;90.60;;;;;;1872308;75;21045;-56
2022/10/15 02:24:58;;;;;;;13.78;9.18;;;8.40;90.60;;;;;;1872924;76;21041;-55
2022/10/15 02:27:28;;;;;;;12.95;8.55;;;8.40;90.50;;;;;;1871663;77;21030;-55
2022/10/15 02:29:58;;;;;;;18.07;10.32;;;8.40;90.60;;;;;;1872794;77;21104;-56
2022/10/15 02:32:28;;;;;;;19.50;9.23;;;8.40;90.70;;;;;;1872794;77;21512;-56
2022/10/15 02:34:58;;;;;;;15.98;8.85;;;8.40;90.60;;;;;;1872885;77;20990;-56
2022/10/15 02:37:29;;;;;;;12.65;8.83;;;8.30;90.60;;;;;;1872785;76;21038;-56
2022/10/15 02:39:58;;;;;;;16.10;9.95;;;8.30;90.70;;;;;;1872792;76;21056;-56
2022/10/15 02:42:27;;;;;;;15.60;8.58;;;8.30;90.70;;;;;;1872894;77;21025;-56
2022/10/15 02:44:57;;;;;;;15.60;9.65;;;8.30;90.70;;;;;;1872797;77;21021;-56
2022/10/15 02:47:26;;;;;;;17.32;9.90;;;8.30;90.60;;;;;;1872753;77;21018;-56
2022/10/15 02:49:55;;;;;;;17.25;9.08;;;8.30;90.70;;;;;;1872812;77;21022;-56
2022/10/15 02:52:25;;;;;;;15.88;9.55;;;8.30;90.80;;;;;;1872919;76;21022;-56
2022/10/15 02:54:54;;;;;;;13.00;8.53;;;8.30;90.80;;;;;;1872865;77;20997;-56
2022/10/15 02:57:23;;;;;;;19.35;9.03;;;8.30;90.70;;;;;;1872874;76;21041;-56
2022/10/15 02:59:53;;;;;;;20.50;9.33;;;8.30;90.70;;;;;;1872959;77;21115;-57
2022/10/15 03:02:22;;;;;;;17.42;10.05;;;8.30;90.70;;;;;;1872911;77;21083;-55
2022/10/15 03:04:52;;;;;;;17.60;10.13;;;8.20;90.70;;;;;;1872980;77;21058;-56
2022/10/15 03:07:22;;;;;;;24.07;10.00;;;8.20;90.80;;;;;;1872744;77;21205;-56
2022/10/15 03:09:52;;;;;;;17.35;9.75;;;8.20;90.80;;;;;;1872874;76;21148;-56
2022/10/15 03:12:22;;;;;;;13.60;9.45;;;8.20;90.80;;;;;;1872774;76;21065;-56
2022/10/15 03:14:53;;;;;;;18.35;9.80;;;8.20;90.80;;;;;;1872842;76;21018;-56
2022/10/15 03:17:22;;;;;;;18.67;9.85;;;8.20;90.90;;;;;;1872801;77;21014;-56
2022/10/15 03:19:51;;;;;;;22.07;9.43;;;8.20;90.90;;;;;;1872798;77;21174;-56
2022/10/15 03:22:21;;;;;;;30.48;11.35;;;8.20;90.80;;;;;;1872859;75;21113;-56
2022/10/15 03:24:52;;;;;;;23.65;10.13;;;8.10;90.80;;;;;;1872437;76;21085;-56
2022/10/15 03:27:23;;;;;;;22.55;9.90;;;8.10;90.80;;;;;;1872254;76;21124;-56
2022/10/15 03:29:53;;;;;;;16.77;10.20;;;8.00;91.00;;;;;;1872742;77;21017;-56
2022/10/15 03:32:23;;;;;;;17.23;9.33;;;8.00;90.90;;;;;;1872723;77;21057;-56
2022/10/15 03:34:52;;;;;;;14.38;8.45;;;7.90;90.90;;;;;;1873028;76;21022;-55
2022/10/15 03:37:22;;;;;;;15.88;8.98;;;7.90;90.90;;;;;;1872769;76;21065;-56
2022/10/15 03:39:51;;;;;;;20.55;10.90;;;7.90;91.00;;;;;;1872823;76;21138;-56
2022/10/15 03:42:20;;;;;;;17.12;9.80;;;7.90;91.10;;;;;;1872766;76;21021;-56
2022/10/15 03:44:51;;;;;;;15.38;9.83;;;7.90;91.20;;;;;;1872503;76;21124;-56
2022/10/15 03:47:20;;;;;;;18.10;9.68;;;8.00;91.10;;;;;;1872849;76;21057;-56
2022/10/15 03:49:50;;;;;;;21.45;10.80;;;8.00;91.10;;;;;;1872747;77;21032;-56
2022/10/15 03:52:20;;;;;;;21.75;9.70;;;8.00;91.00;;;;;;1872835;75;20994;-56
2022/10/15 03:54:50;;;;;;;23.22;9.75;;;7.90;91.10;;;;;;1872809;77;21162;-56
2022/10/15 03:57:21;;;;;;;18.10;10.23;;;8.00;91.10;;;;;;1872700;76;21543;-56
2022/10/15 03:59:52;;;;;;;14.47;9.83;;;8.00;91.10;;;;;;1872228;76;21082;-55
2022/10/15 04:02:22;;;;;;;19.65;9.83;;;8.00;91.10;;;;;;1872779;77;21091;-56
2022/10/15 04:04:54;;;;;;;17.23;9.48;;;8.00;91.10;;;;;;1872970;77;21123;-56
2022/10/15 04:07:24;;;;;;;23.30;11.28;;;8.00;91.00;;;;;;1872741;77;20998;-56
2022/10/15 04:09:53;;;;;;;18.65;9.35;;;7.90;91.00;;;;;;1872706;77;21049;-56
2022/10/15 04:12:30;;;;;;;20.08;10.98;;;7.90;91.10;;;;;;1871786;76;21160;-55
2022/10/15 04:14:59;;;;;;;20.32;10.32;;;7.90;91.00;;;;;;1872792;75;21460;-56
2022/10/15 04:17:29;;;;;;;25.95;11.48;;;7.90;91.10;;;;;;1872731;75;21021;-56
2022/10/15 04:19:58;;;;;;;24.12;11.08;;;7.90;91.30;;;;;;1872742;77;21076;-56
2022/10/15 04:22:28;;;;;;;24.32;10.80;;;8.00;91.30;;;;;;1872652;75;21148;-56
2022/10/15 04:24:59;;;;;;;23.83;10.48;;;8.00;91.30;;;;;;1872380;77;21464;-56
2022/10/15 04:27:29;;;;;;;16.95;11.15;;;8.10;91.20;;;;;;1872772;75;21057;-56
2022/10/15 04:30:07;;;;;;;18.67;9.68;;;8.10;91.30;;;;;;1872023;77;21081;-56
2022/10/15 04:32:36;;;;;;;33.63;11.08;;;8.10;91.20;;;;;;1872703;76;21025;-56
2022/10/15 04:35:06;;;;;;;26.00;10.35;;;8.10;91.20;;;;;;1872846;75;21018;-56
2022/10/15 04:37:52;;;;;;;33.70;10.05;;;8.10;91.10;;;;;;1870531;77;21053;-56
2022/10/15 04:40:21;;;;;;;22.90;10.03;;;8.20;91.10;;;;;;1872854;75;21276;-56
2022/10/15 04:42:51;;;;;;;19.23;9.63;;;8.20;91.10;;;;;;1872786;77;21069;-56
2022/10/15 04:45:20;;;;;;;20.45;9.80;;;8.20;91.10;;;;;;1872879;77;21034;-56
2022/10/15 04:47:49;;;;;;;16.73;8.85;;;8.20;91.10;;;;;;1872716;76;21025;-56
2022/10/15 04:50:20;;;;;;;15.80;10.32;;;8.30;90.90;;;;;;1872751;77;21127;-56
2022/10/15 04:53:06;;;;;;;16.75;9.65;;;8.20;90.80;;;;;;1872752;77;21123;-56
2022/10/15 04:55:37;;;;;;;19.23;9.48;;;8.20;90.90;;;;;;1872638;75;21049;-55
2022/10/15 04:58:07;;;;;;;17.60;9.48;;;8.20;91.00;;;;;;1872753;77;21029;-56
2022/10/15 05:00:36;;;;;;;16.93;9.40;;;8.30;90.90;;;;;;1872739;77;21100;-56
2022/10/15 05:03:07;;;;;;;13.98;8.63;;;8.30;90.70;;;;;;1870218;77;21089;-56
2022/10/15 05:05:41;;;;;;;15.85;9.23;;;8.30;90.50;;;;;;1871809;77;21093;-56
2022/10/15 05:08:10;;;;;;;18.73;9.25;;;8.30;90.30;;;;;;1872677;77;21042;-57
2022/10/15 05:10:41;;;;;;;13.03;9.18;;;8.30;90.30;;;;;;1867914;77;21049;-57
2022/10/15 05:13:11;;;;;;;13.45;9.48;;;8.20;90.00;;;;;;1872675;76;21121;-56
2022/10/15 05:15:41;;;;;;;18.55;9.98;;;8.20;90.20;;;;;;1872684;77;21017;-56
2022/10/15 05:18:11;;;;;;;12.23;8.53;;;8.20;90.30;;;;;;1872529;77;21014;-56
2022/10/15 05:20:44;;;;;;;18.27;9.08;;;8.20;90.30;;;;;;1871746;77;21065;-57
2022/10/15 05:23:16;;;;;;;11.60;8.85;;;8.30;90.40;;;;;;1872613;75;21050;-57
2022/10/15 05:25:47;;;;;;;14.05;8.38;;;8.40;90.50;;;;;;1871672;76;21033;-57
2022/10/15 05:28:17;;;;;;;20.82;8.65;;;8.40;90.30;;;;;;1872216;76;21574;-56
2022/10/15 05:30:47;;;;;;;16.37;8.30;;;8.50;90.40;;;;;;1872583;77;21480;-56
2022/10/15 05:33:17;;;;;;;14.00;7.83;;;8.50;90.40;;;;;;1872595;75;21128;-57
2022/10/15 05:35:46;;;;;;;11.18;8.00;;;8.60;90.30;;;;;;1872827;77;21022;-57
2022/10/15 05:38:16;;;;;;;11.48;8.40;;;8.60;90.20;;;;;;1872707;77;21545;-57
2022/10/15 05:40:49;;;;;;;11.83;7.20;;;8.60;90.30;;;;;;1872763;77;21069;-57
2022/10/15 05:43:20;;;;;;;12.43;7.75;;;8.70;90.20;;;;;;1872721;76;21049;-57
2022/10/15 05:45:51;;;;;;;14.60;9.28;;;8.70;90.20;;;;;;1872873;76;21172;-57
2022/10/15 05:48:20;;;;;;;21.00;9.18;;;8.70;89.50;;;;;;1872828;76;21468;-57
2022/10/15 05:50:49;;;;;;;18.02;8.90;;;8.60;89.30;;;;;;1872735;77;21100;-57
2022/10/15 05:53:20;;;;;;;13.25;8.83;;;8.60;89.60;;;;;;1872113;76;21053;-57
2022/10/15 05:55:53;;;;;;;10.82;7.85;;;8.50;89.60;;;;;;1872306;76;21037;-57
2022/10/15 05:58:24;;;;;;;12.10;9.30;;;8.50;89.90;;;;;;1872383;76;21455;-57
2022/10/15 06:01:01;;;;;;;16.10;8.98;;;8.50;90.00;;;;;;1872677;77;20998;-56
2022/10/15 06:03:30;;;;;;;15.93;8.98;;;8.50;90.10;;;;;;1872848;77;20986;-57
2022/10/15 06:05:59;;;;;;;13.68;7.92;;;8.60;90.30;;;;;;1872750;77;21096;-57
2022/10/15 06:08:31;;;;;;;15.58;8.48;;;8.70;90.00;;;;;;1872409;76;21069;-56
2022/10/15 06:11:03;;;;;;;14.38;8.58;;;8.70;89.90;;;;;;1872760;77;21026;-57
2022/10/15 06:13:32;;;;;;;15.55;9.00;;;8.80;90.10;;;;;;1872747;77;21158;-57
2022/10/15 06:16:03;;;;;;;11.40;7.25;;;8.80;90.20;;;;;;1872753;77;20998;-56
2022/10/15 06:18:33;;;;;;;13.83;8.53;;;8.90;89.30;;;;;;1872745;76;21178;-56
2022/10/15 06:21:02;;;;;;;11.60;7.25;;;8.90;89.40;;;;;;1872702;76;21113;-57
2022/10/15 06:23:32;;;;;;;12.18;7.42;;;8.90;89.70;;;;;;1872684;75;21013;-57
2022/10/15 06:26:06;;;;;;;10.08;7.45;;;8.90;89.40;;;;;;1872757;76;21014;-57
2022/10/15 06:28:36;;;;;;;12.40;7.92;;;8.90;89.60;;;;;;1873075;77;20990;-57
2022/10/15 06:31:06;;;;;;;11.48;7.65;;;9.00;89.80;;;;;;1872700;76;21013;-57
2022/10/15 06:33:35;;;;;;;11.93;8.43;;;9.00;89.30;;;;;;1872745;76;21170;-57
2022/10/15 06:36:09;;;;;;;11.12;7.85;;;9.00;89.10;;;;;;1872695;75;21033;-57
2022/10/15 06:38:38;;;;;;;13.62;8.48;;;9.00;89.40;;;;;;1872913;77;21014;-57
2022/10/15 06:41:08;;;;;;;10.72;7.58;;;9.10;89.60;;;;;;1872740;77;21123;-57
2022/10/15 06:43:37;;;;;;;14.20;9.00;;;9.10;89.50;;;;;;1872844;76;21021;-57
2022/10/15 06:46:07;;;;;;;14.83;8.60;;;9.10;89.40;;;;;;1872694;75;21116;-57
2022/10/15 06:48:36;;;;;;;13.10;9.03;;;9.20;89.60;;;;;;1872717;77;21087;-57
2022/10/15 06:51:05;;;;;;;15.10;8.73;;;9.20;89.60;;;;;;1872840;77;21092;-57
2022/10/15 06:53:34;;;;;;;13.60;7.92;;;9.30;89.40;;;;;;1872752;76;21033;-57
2022/10/15 06:56:04;;;;;;;12.90;9.25;;;9.30;89.30;;;;;;1872803;77;21021;-57
2022/10/15 06:58:35;;;;;;;12.50;8.18;;;9.40;89.10;;;;;;1872332;76;21036;-57
2022/10/15 07:01:07;;;;;;;12.80;8.88;;;9.50;89.30;;;;;;1872784;76;21084;-57
2022/10/15 07:03:37;;;;;;;13.55;9.03;;;9.60;89.40;;;;;;1872772;77;21101;-57
2022/10/15 07:06:09;;;;;;;19.48;9.98;;;9.70;89.30;;;;;;1872954;75;21574;-57
2022/10/15 07:08:38;;;;;;;13.98;9.70;;;9.80;88.90;;;;;;1872681;77;21049;-56
2022/10/15 07:11:08;;;;;;;15.72;9.13;;;9.80;89.00;;;;;;1872690;77;21029;-57
2022/10/15 07:13:38;;;;;;;11.85;9.05;;;9.90;88.80;;;;;;1872828;76;21182;-57
2022/10/15 07:16:11;;;;;;;13.48;9.00;;;9.90;88.80;;;;;;1872798;77;21033;-57
2022/10/15 07:18:40;;;;;;;15.38;9.08;;;10.00;88.40;;;;;;1872771;77;21100;-57
2022/10/15 07:21:11;;;;;;;14.28;9.73;;;10.00;88.70;;;;;;1872709;76;21573;-57
2022/10/15 07:23:40;;;;;;;24.43;10.25;;;10.10;88.70;;;;;;1872730;77;21057;-57
2022/10/15 07:26:10;;;;;;;20.80;10.60;;;10.20;88.60;;;;;;1872829;75;21118;-57
2022/10/15 07:28:40;;;;;;;14.83;8.25;;;10.20;88.50;;;;;;1872669;77;21050;-57
2022/10/15 07:31:09;;;;;;;13.05;9.25;;;10.30;88.30;;;;;;1872769;77;21113;-57
2022/10/15 07:33:38;;;;;;;14.83;10.05;;;10.40;88.50;;;;;;1872631;77;21030;-56
2022/10/15 07:36:10;;;;;;;15.30;9.70;;;10.50;88.40;;;;;;1872540;77;21178;-57
2022/10/15 07:38:42;;;;;;;16.20;9.55;;;10.60;88.20;;;;;;1872675;77;21050;-57
2022/10/15 07:41:11;;;;;;;19.25;11.10;;;10.70;87.90;;;;;;1872652;77;21095;-57
2022/10/15 07:43:47;;;;;;;11.43;9.18;;;10.70;87.90;;;;;;1872764;77;21120;-57
2022/10/15 07:46:16;;;;;;;17.10;9.63;;;10.80;87.20;;;;;;1872648;77;21016;-57
2022/10/15 07:48:45;;;;;;;15.15;10.82;;;10.90;87.50;;;;;;1872668;77;21034;-57
2022/10/15 07:51:14;;;;;;;11.10;9.20;;;10.90;87.60;;;;;;1872795;77;21105;-57
2022/10/15 07:53:43;;;;;;;15.18;9.43;;;11.00;87.30;;;;;;1872851;77;21073;-57
2022/10/15 07:56:13;;;;;;;15.20;9.58;;;11.10;87.10;;;;;;1872755;76;21947;-57
2022/10/15 07:58:50;;;;;;;12.95;10.00;;;11.20;87.20;;;;;;1872741;77;21061;-57
2022/10/15 08:01:13;;;;;;;13.18;9.18;;;11.20;87.10;;;;;;1871689;76;21135;-57
2022/10/15 08:03:42;;;;;;;15.08;9.18;;;11.30;87.10;;;;;;1872715;77;21220;-57
2022/10/15 08:06:11;;;;;;;12.75;9.20;;;11.40;86.50;;;;;;1872703;77;21468;-57
2022/10/15 08:08:40;;;;;;;14.28;9.40;;;11.40;86.60;;;;;;1872649;77;21037;-57
2022/10/15 08:11:14;;;;;;;13.65;9.53;;;11.50;86.30;;;;;;1872769;77;20997;-57
2022/10/15 08:13:45;;;;;;;19.17;9.63;;;11.60;86.60;;;;;;1872967;77;21092;-57
2022/10/15 08:16:18;;;;;;;13.08;9.73;;;11.60;86.20;;;;;;1872729;77;21025;-57
2022/10/15 08:18:48;;;;;;;15.93;9.38;;;11.70;86.00;;;;;;1872337;76;21572;-57
2022/10/15 08:21:17;;;;;;;11.83;9.13;;;11.80;86.40;;;;;;1872695;77;21033;-57
2022/10/15 08:23:46;;;;;;;12.82;9.18;;;11.80;85.80;;;;;;1872704;77;21051;-57
2022/10/15 08:26:15;;;;;;;16.30;9.95;;;11.90;85.90;;;;;;1872657;75;21127;-57
2022/10/15 08:28:45;;;;;;;17.10;11.40;;;11.90;85.60;;;;;;1872592;77;21139;-57
2022/10/15 08:31:14;;;;;;;16.12;10.08;;;12.00;85.40;;;;;;1872589;76;21579;-57
2022/10/15 08:33:44;;;;;;;15.13;10.85;;;12.10;85.40;;;;;;1872656;77;21158;-57
2022/10/15 08:36:14;;;;;;;12.30;9.30;;;12.10;85.50;;;;;;1872681;76;20998;-57
2022/10/15 08:38:44;;;;;;;14.58;9.33;;;12.20;85.60;;;;;;1872638;77;21033;-57
2022/10/15 08:41:15;;;;;;;15.93;9.08;;;12.30;85.10;;;;;;1872658;77;21058;-57
2022/10/15 08:43:47;;;;;;;10.85;7.22;;;12.40;84.90;;;;;;1871250;77;21112;-57
2022/10/15 08:46:21;;;;;;;12.58;6.67;;;12.60;84.20;;;;;;1872669;77;21045;-57
2022/10/15 08:48:53;;;;;;;19.52;7.62;;;12.80;83.70;;;;;;1865315;76;21017;-57
2022/10/15 08:51:24;;;;;;;15.85;7.95;;;12.90;83.10;;;;;;1871863;77;21476;-57
2022/10/15 08:53:56;;;;;;;10.48;6.95;;;13.00;82.90;;;;;;1872733;77;21183;-57
2022/10/15 08:56:28;;;;;;;10.65;7.10;;;13.20;81.40;;;;;;1872356;77;21091;-57
2022/10/15 08:59:02;;;;;;;7.85;5.33;;;13.30;81.60;;;;;;1872714;77;21092;-57
2022/10/15 09:01:38;;;;;;;;;;;13.40;80.00;;;;;;1875470;77;21057;-57
2022/10/15 09:04:16;;;;;;;10.93;8.03;;;13.50;81.00;;;;;;1872892;75;20113;-57
2022/10/15 09:06:46;;;;;;;12.73;6.78;;;13.60;80.30;;;;;;1870757;77;21057;-57
2022/10/15 09:09:30;;;;;;;12.63;7.12;;;13.70;79.40;;;;;;1872644;76;21091;-57
2022/10/15 09:12:29;;;;;;;8.25;5.90;;;13.80;79.80;;;;;;1872544;76;21095;-57
2022/10/15 09:15:00;;;;;;;7.65;5.17;;;13.90;78.20;;;;;;1872860;77;21026;-57
2022/10/15 09:17:32;;;;;;;10.00;6.97;;;14.00;77.10;;;;;;1872777;77;20990;-57
2022/10/15 09:20:04;;;;;;;14.55;6.80;;;14.10;77.20;;;;;;1872827;77;21100;-58
2022/10/15 09:22:35;;;;;;;10.35;7.05;;;14.20;76.80;;;;;;1872640;77;21158;-57
2022/10/15 09:25:18;;;;;;;10.53;6.47;;;14.30;76.50;;;;;;1872742;75;21037;-57
2022/10/15 09:27:48;;;;;;;12.65;7.90;;;14.30;76.40;;;;;;1872594;77;21115;-57
2022/10/15 09:30:26;;;;;;;11.38;7.92;;;14.40;76.70;;;;;;1872593;77;21038;-57
2022/10/15 09:32:58;;;;;;;10.90;6.45;;;14.40;76.20;;;;;;1872589;75;21077;-57
2022/10/15 09:35:30;;;;;;;6.00;3.85;;;14.50;75.50;;;;;;1872635;77;21013;-57
2022/10/15 09:38:19;;;;;;;11.70;6.92;;;14.60;73.80;;;;;;1872606;76;21549;-57
2022/10/15 09:40:51;;;;;;;12.13;5.80;;;14.60;75.10;;;;;;1862273;77;21116;-57
2022/10/15 09:43:29;;;;;;;9.05;6.25;;;14.70;75.10;;;;;;1872655;77;21542;-57
2022/10/15 09:45:56;;;;;;;9.63;5.60;;;14.70;74.70;;;;;;1872406;76;21115;-57
2022/10/15 09:48:28;;;;;;;14.35;6.95;;;14.80;74.20;;;;;;1872733;77;21061;-57
2022/10/15 09:50:59;;;;;;;12.23;6.62;;;14.90;74.30;;;;;;1872645;77;20990;-57
2022/10/15 09:53:44;;;;;;;7.37;4.62;;;14.90;73.90;;;;;;1872682;76;21100;-57
2022/10/15 09:56:22;;;;;;;9.45;6.50;;;15.00;73.00;;;;;;1872944;77;21057;-57
2022/10/15 09:58:54;;;;;;;11.18;5.85;;;15.10;72.80;;;;;;1872804;77;21112;-57
2022/10/15 10:01:28;;;;;;;9.05;5.78;;;15.10;72.90;;;;;;1872488;76;21152;-57
2022/10/15 10:04:12;;;;;;;9.33;6.60;;;15.10;72.50;;;;;;1872828;77;21061;-58
2022/10/15 10:06:53;;;;;;;10.48;5.92;;;15.20;73.40;;;;;;1873057;77;21107;-58
2022/10/15 10:09:25;;;;;;;9.13;5.25;;;15.30;72.50;;;;;;1872671;77;21488;-58
2022/10/15 10:12:01;;;;;;;11.73;5.72;;;15.30;72.30;;;;;;1872248;75;21069;-59
2022/10/15 10:14:39;;;;;;;9.43;5.20;;;15.40;72.10;;;;;;1872825;77;20990;-58
2022/10/15 10:17:16;;;;;;;14.55;6.70;;;15.40;71.20;;;;;;1871182;76;21026;-58
2022/10/15 10:19:48;;;;;;;11.38;5.10;;;15.40;71.50;;;;;;1872754;76;21123;-59
2022/10/15 10:22:19;;;;;;;10.50;5.92;;;15.40;72.00;;;;;;1870365;76;21030;-58
2022/10/15 10:24:48;;;;;;;10.08;6.10;;;15.50;71.40;;;;;;1872712;77;21464;-58
2022/10/15 10:27:20;;;;;;;8.58;5.80;;;15.50;71.20;;;;;;1872740;75;21136;-59
2022/10/15 10:29:52;;;;;;;15.70;6.08;;;15.60;71.40;;;;;;1872860;77;21049;-58
2022/10/15 10:32:24;;;;;;;9.08;5.72;;;15.60;71.60;;;;;;1871815;76;21038;-59
2022/10/15 10:34:54;;;;;;;7.97;6.40;;;15.70;70.70;;;;;;1872940;76;21045;-58
2022/10/15 10:37:23;;;;;;;8.35;5.95;;;15.70;71.10;;;;;;1872711;77;21013;-58
2022/10/15 10:39:58;;;;;;;6.60;4.42;;;15.80;71.20;;;;;;1872827;77;21131;-58
2022/10/15 10:42:30;;;;;;;10.35;5.35;;;15.80;70.50;;;;;;1872935;77;21083;-59
2022/10/15 10:45:19;;;;;;;15.98;7.37;;;15.80;70.50;;;;;;1872860;77;21553;-59
2022/10/15 10:47:49;;;;;;;12.03;6.05;;;15.90;70.60;;;;;;1872785;75;21550;-58
2022/10/15 10:50:21;;;;;;;11.43;4.78;;;15.90;69.50;;;;;;1872673;76;21127;-58
2022/10/15 10:52:50;;;;;;;11.45;7.03;;;15.90;69.50;;;;;;1865931;76;21045;-58
2022/10/15 10:55:23;;;;;;;14.03;7.10;;;16.00;69.80;;;;;;1872812;76;21116;-58
2022/10/15 10:57:58;;;;;;;9.63;5.17;;;16.00;69.40;;;;;;1872722;76;21018;-58
2022/10/15 11:00:42;;;;;;;11.38;5.12;;;16.10;69.40;;;;;;1872702;75;21104;-59
2022/10/15 11:03:22;;;;;;;13.25;7.72;;;16.10;69.80;;;;;;1872702;76;21014;-58
2022/10/15 11:05:56;;;;;;;8.98;5.17;;;16.10;69.50;;;;;;1871611;76;21140;-58
2022/10/15 11:08:44;;;;;;;7.67;5.45;;;16.10;68.90;;;;;;1872578;76;21488;-59
2022/10/15 11:11:30;;;;;;;11.38;4.90;;;16.10;69.50;;;;;;1872723;76;21018;-58
2022/10/15 11:14:08;;;;;;;12.05;6.15;;;16.20;69.00;;;;;;1872809;76;20994;-58
2022/10/15 11:16:58;;;;;;;21.10;6.80;;;16.20;68.90;;;;;;1872797;77;21103;-58
2022/10/15 11:19:54;;;;;;;13.90;4.87;;;16.20;68.20;;;;;;1872229;76;21057;-59
2022/10/15 11:22:35;;;;;;;7.78;4.78;;;16.30;68.00;;;;;;1872736;76;21105;-59
2022/10/15 11:25:37;;;;;;;10.68;5.78;;;16.30;68.30;;;;;;1872788;77;21096;-59
2022/10/15 11:28:15;;;;;;;6.67;5.10;;;16.40;68.70;;;;;;1871619;75;21127;-58
2022/10/15 11:31:22;;;;;;;15.78;5.83;;;16.40;68.30;;;;;;1872224;76;21088;-58
2022/10/15 11:34:28;;;;;;;10.00;7.15;;;16.40;68.50;;;;;;1871523;77;21001;-57
2022/10/15 11:37:06;;;;;;;8.50;4.62;;;16.40;68.20;;;;;;1872990;77;21065;-57
2022/10/15 11:39:53;;;;;;;7.75;4.58;;;16.50;67.20;;;;;;1872819;77;21495;-57
2022/10/15 11:42:37;;;;;;;17.50;6.35;;;16.50;67.30;;;;;;1872336;77;21045;-57
2022/10/15 11:45:27;;;;;;;8.45;4.40;;;16.60;67.80;;;;;;1872395;77;21104;-58
2022/10/15 11:48:10;;;;;;;13.95;4.67;;;16.60;67.50;;;;;;1872880;77;21112;-58
2022/10/15 11:50:42;;;;;;;7.35;4.47;;;16.60;67.50;;;;;;1871888;77;21065;-57
2022/10/15 11:53:33;;;;;;;12.03;5.45;;;16.60;67.20;;;;;;1872904;77;21083;-58
2022/10/15 11:56:08;;;;;;;9.33;5.22;;;16.60;67.40;;;;;;1872838;77;21050;-58
2022/10/15 11:58:39;;;;;;;6.15;4.97;;;16.60;67.00;;;;;;1872641;77;21550;-58
2022/10/15 12:01:14;;;;;;;9.98;5.83;;;16.70;67.50;;;;;;1872697;77;21468;-58
2022/10/15 12:03:46;;;;;;;6.67;5.17;;;16.70;67.80;;;;;;1872775;76;21058;-58
2022/10/15 12:06:17;;;;;;;15.68;5.60;;;16.70;67.80;;;;;;1863634;77;21468;-58
2022/10/15 12:08:47;;;;;;;8.85;5.40;;;16.70;67.60;;;;;;1872690;77;21041;-58
2022/10/15 12:11:36;;;;;;;10.30;5.42;;;16.70;67.60;;;;;;1872851;76;21052;-57
2022/10/15 12:14:25;;;;;;;8.63;5.50;;;16.70;67.20;;;;;;1872192;77;21021;-58
2022/10/15 12:17:15;;;;;;;6.47;5.42;;;16.70;68.00;;;;;;1872595;76;21069;-57
2022/10/15 12:19:53;;;;;;;13.43;6.40;;;16.70;68.00;;;;;;1872695;77;21057;-58
2022/10/15 12:22:34;;;;;;;9.68;6.17;;;16.80;67.90;;;;;;1872801;77;21057;-58
2022/10/15 12:25:04;;;;;;;7.35;5.50;;;16.80;68.20;;;;;;1872344;77;21049;-58
2022/10/15 12:27:36;;;;;;;9.88;5.33;;;16.80;68.00;;;;;;1872855;75;21092;-57
2022/10/15 12:30:08;;;;;;;10.75;5.47;;;16.80;68.20;;;;;;1872728;77;21155;-58
2022/10/15 12:32:47;;;;;;;9.53;5.92;;;16.80;68.00;;;;;;1872741;77;21053;-58
2022/10/15 12:35:21;;;;;;;7.60;5.12;;;16.80;68.00;;;;;;1872678;77;21436;-58
2022/10/15 12:37:51;;;;;;;10.40;5.37;;;16.80;67.90;;;;;;1872849;77;21545;-58
2022/10/15 12:40:28;;;;;;;11.97;4.80;;;16.80;67.80;;;;;;1872628;77;21021;-58
2022/10/15 12:43:03;;;;;;;5.35;4.67;;;16.80;68.00;;;;;;1870052;76;21096;-58
2022/10/15 12:45:39;;;;;;;8.20;4.90;;;16.80;68.30;;;;;;1872632;76;21117;-58
2022/10/15 12:48:17;;;;;;;4.30;3.55;;;16.80;67.70;;;;;;1872729;75;21017;-58
2022/10/15 12:50:48;;;;;;;5.50;4.60;;;16.80;67.70;;;;;;1872678;77;21111;-58
2022/10/15 12:53:31;;;;;;;10.15;5.20;;;16.80;67.90;;;;;;1872755;77;21456;-58
2022/10/15 12:56:18;;;;;;;10.58;5.80;;;16.70;67.90;;;;;;1872712;77;21103;-58
2022/10/15 12:58:53;;;;;;;10.72;5.25;;;16.70;68.00;;;;;;1872677;77;21001;-59
2022/10/15 13:01:25;;;;;;;7.03;5.08;;;16.70;68.00;;;;;;1872789;75;21127;-59
2022/10/15 13:03:57;;;;;;;6.25;4.37;;;16.70;68.10;;;;;;1872344;77;21156;-58
2022/10/15 13:06:32;;;;;;;9.90;6.05;;;16.70;68.90;;;;;;1872761;77;21025;-59
2022/10/15 13:09:02;;;;;;;;;;;16.70;68.40;;;;;;1875535;77;21033;-58
2022/10/15 13:11:37;;;;;;;8.18;5.55;;;16.70;68.30;;;;;;1872769;77;20101;-58
2022/10/15 13:14:23;;;;;;;7.92;5.50;;;16.60;68.70;;;;;;1872740;77;21445;-58
2022/10/15 13:16:54;;;;;;;10.50;5.12;;;16.60;68.80;;;;;;1872250;77;21086;-58